Kickapoo, Louisiana
Current Conditions -  °F | °C
As of 3:56 AM on Friday 31 Oct 2014 (Local Time) from KSHV Reporting Station
Clear Clear  
Wind Chill: 53°   Ceiling: Unl
Heat Index: 53°   Visibility: 10mi
Dew Point: 47°   Wind: 8mph
Humidity: 80%   Direction: 310°NW
Pressure: 30.08"   Gusts: NA
Location:  32.1925°N, 93.8233°W
Report Text: KSHV 310856Z 31007KT 10SM CLR 12/08 A3008 RMK AO2 SLP183 T01170083 56002
Loading
Personal Weather Stations






























Interactive Weather Map
Tropical Storm Tracking
New forecast layout! Learn more

10-Day Weather Forecast

Advertisements
Track Severe Weather on mobile